Sundridge, Canada
Current Conditions -  °F | °C
As of 7:00 PM on Friday 19 Dec 2014 (Local Time) from CYQA Reporting Station
Overcast Overcast  
Wind Chill:   Ceiling: 6500
Heat Index: 19°   Visibility: 9mi
Dew Point: 16°   Wind: 8mph
Humidity: 86%   Direction: 320°NW
Pressure: 30.22"   Gusts: NA
Location:  45.77°N, 79.4°W
Report Text: CYQA 200000Z AUTO 32007KT 9SM OVC065 M07/M09 A3022 RMK SLP252
Loading
Personal Weather Stations






























Interactive Weather Map New forecast layout! Learn more

10-Day Weather Forecast

Advertisements
Track Severe Weather on mobile